Aviation Digital Data Service (ADDS)

Output produced by METARs form (0348 UTC 28 April 2015)
found at http://aviationweather.gov/adds/metars/
 
KISP 280236Z 2803/2824 33015G23KT P6SM BKN060 
     FM281100 36015G22KT P6SM SCT250 
     FM281800 33012G19KT P6SM SCT070 SCT250 
     FM282300 30010KT P6SM SKC